sensor_id;sensor_type;location;lat;lon;timestamp;temperature;humidity
59307;DHT22;47983;53.016;-2.260;2022-11-15T00:01:57;8.00;99.90
59307;DHT22;47983;53.016;-2.260;2022-11-15T00:04:43;8.00;99.90
59307;DHT22;47983;53.016;-2.260;2022-11-15T00:07:29;8.00;99.90
59307;DHT22;47983;53.016;-2.260;2022-11-15T00:10:37;7.90;99.90
59307;DHT22;47983;53.016;-2.260;2022-11-15T00:13:23;7.90;99.90
59307;DHT22;47983;53.016;-2.260;2022-11-15T00:16:09;7.90;99.90
59307;DHT22;47983;53.016;-2.260;2022-11-15T00:18:56;7.90;99.90
59307;DHT22;47983;53.016;-2.260;2022-11-15T00:21:43;7.90;99.90
59307;DHT22;47983;53.016;-2.260;2022-11-15T00:24:29;7.90;99.90
59307;DHT22;47983;53.016;-2.260;2022-11-15T00:27:16;7.90;99.90
59307;DHT22;47983;53.016;-2.260;2022-11-15T00:30:02;7.90;99.90
59307;DHT22;47983;53.016;-2.260;2022-11-15T00:32:48;7.90;99.90
59307;DHT22;47983;53.016;-2.260;2022-11-15T00:35:34;7.90;99.90
59307;DHT22;47983;53.016;-2.260;2022-11-15T00:38:21;7.90;99.90
59307;DHT22;47983;53.016;-2.260;2022-11-15T00:41:07;8.00;99.90
59307;DHT22;47983;53.016;-2.260;2022-11-15T00:43:55;8.00;99.90
59307;DHT22;47983;53.016;-2.260;2022-11-15T00:46:41;8.00;99.90
59307;DHT22;47983;53.016;-2.260;2022-11-15T00:49:27;8.10;99.90
59307;DHT22;47983;53.016;-2.260;2022-11-15T00:52:13;8.20;99.90
59307;DHT22;47983;53.016;-2.260;2022-11-15T00:55:00;8.10;99.90
59307;DHT22;47983;53.016;-2.260;2022-11-15T00:57:52;8.20;99.90
59307;DHT22;47983;53.016;-2.260;2022-11-15T01:00:38;8.20;99.90
59307;DHT22;47983;53.016;-2.260;2022-11-15T01:03:24;8.30;99.90
59307;DHT22;47983;53.016;-2.260;2022-11-15T01:06:11;8.30;99.90
59307;DHT22;47983;53.016;-2.260;2022-11-15T01:08:57;8.30;99.90
59307;DHT22;47983;53.016;-2.260;2022-11-15T01:11:44;8.40;99.90
59307;DHT22;47983;53.016;-2.260;2022-11-15T01:14:31;8.40;99.90
59307;DHT22;47983;53.016;-2.260;2022-11-15T01:17:17;8.40;99.90
59307;DHT22;47983;53.016;-2.260;2022-11-15T01:20:04;8.50;99.90
59307;DHT22;47983;53.016;-2.260;2022-11-15T01:22:50;8.40;99.90
59307;DHT22;47983;53.016;-2.260;2022-11-15T01:25:36;8.50;99.90
59307;DHT22;47983;53.016;-2.260;2022-11-15T01:28:23;8.40;99.90
59307;DHT22;47983;53.016;-2.260;2022-11-15T01:31:13;8.40;99.90
59307;DHT22;47983;53.016;-2.260;2022-11-15T01:34:00;8.50;99.90
59307;DHT22;47983;53.016;-2.260;2022-11-15T01:36:45;8.50;99.90
59307;DHT22;47983;53.016;-2.260;2022-11-15T01:39:32;8.40;99.90
59307;DHT22;47983;53.016;-2.260;2022-11-15T01:42:18;8.50;99.90
59307;DHT22;47983;53.016;-2.260;2022-11-15T01:45:04;8.50;99.90
59307;DHT22;47983;53.016;-2.260;2022-11-15T01:47:52;8.50;99.90
59307;DHT22;47983;53.016;-2.260;2022-11-15T01:50:39;8.50;99.90
59307;DHT22;47983;53.016;-2.260;2022-11-15T01:53:29;8.60;99.90
59307;DHT22;47983;53.016;-2.260;2022-11-15T01:56:23;8.60;99.90
59307;DHT22;47983;53.016;-2.260;2022-11-15T01:59:10;8.60;99.90
59307;DHT22;47983;53.016;-2.260;2022-11-15T02:02:00;8.60;99.90
59307;DHT22;47983;53.016;-2.260;2022-11-15T02:04:47;8.60;99.90
59307;DHT22;47983;53.016;-2.260;2022-11-15T02:07:35;8.60;99.90
59307;DHT22;47983;53.016;-2.260;2022-11-15T02:10:23;8.60;99.90
59307;DHT22;47983;53.016;-2.260;2022-11-15T02:13:10;8.60;99.90
59307;DHT22;47983;53.016;-2.260;2022-11-15T02:16:08;8.60;99.90
59307;DHT22;47983;53.016;-2.260;2022-11-15T02:19:02;8.70;99.90
59307;DHT22;47983;53.016;-2.260;2022-11-15T02:25:30;8.70;99.90
59307;DHT22;47983;53.016;-2.260;2022-11-15T02:34:35;8.80;99.90
59307;DHT22;47983;53.016;-2.260;2022-11-15T02:37:37;8.90;99.90
59307;DHT22;47983;53.016;-2.260;2022-11-15T02:43:45;9.00;99.90
59307;DHT22;47983;53.016;-2.260;2022-11-15T02:49:57;9.10;99.90
59307;DHT22;47983;53.016;-2.260;2022-11-15T02:52:51;9.10;99.90
59307;DHT22;47983;53.016;-2.260;2022-11-15T02:55:40;9.20;99.90
59307;DHT22;47983;53.016;-2.260;2022-11-15T03:01:38;9.30;99.90
59307;DHT22;47983;53.016;-2.260;2022-11-15T03:13:35;9.40;99.90
59307;DHT22;47983;53.016;-2.260;2022-11-15T03:19:35;12.10;99.90
59307;DHT22;47983;53.016;-2.260;2022-11-15T03:22:28;9.30;99.90
59307;DHT22;47983;53.016;-2.260;2022-11-15T03:25:21;9.30;99.90
59307;DHT22;47983;53.016;-2.260;2022-11-15T03:28:11;9.30;99.90
59307;DHT22;47983;53.016;-2.260;2022-11-15T03:30:59;9.30;99.90
59307;DHT22;47983;53.016;-2.260;2022-11-15T03:33:46;9.30;99.90
59307;DHT22;47983;53.016;-2.260;2022-11-15T03:36:33;9.30;99.90
59307;DHT22;47983;53.016;-2.260;2022-11-15T03:39:20;9.30;99.90
59307;DHT22;47983;53.016;-2.260;2022-11-15T03:42:30;9.40;99.90
59307;DHT22;47983;53.016;-2.260;2022-11-15T03:45:39;9.30;99.90
59307;DHT22;47983;53.016;-2.260;2022-11-15T03:48:33;9.20;99.90
59307;DHT22;47983;53.016;-2.260;2022-11-15T03:51:20;9.30;99.90
59307;DHT22;47983;53.016;-2.260;2022-11-15T03:54:06;9.20;99.90
59307;DHT22;47983;53.016;-2.260;2022-11-15T03:56:52;9.30;99.90
59307;DHT22;47983;53.016;-2.260;2022-11-15T03:59:39;9.30;99.90
59307;DHT22;47983;53.016;-2.260;2022-11-15T04:02:25;9.20;99.90
59307;DHT22;47983;53.016;-2.260;2022-11-15T04:05:11;9.20;99.90
59307;DHT22;47983;53.016;-2.260;2022-11-15T04:07:58;9.30;99.90
59307;DHT22;47983;53.016;-2.260;2022-11-15T04:10:44;9.30;99.90
59307;DHT22;47983;53.016;-2.260;2022-11-15T04:13:30;9.30;99.90
59307;DHT22;47983;53.016;-2.260;2022-11-15T04:16:17;9.20;99.90
59307;DHT22;47983;53.016;-2.260;2022-11-15T04:19:03;9.30;99.90
59307;DHT22;47983;53.016;-2.260;2022-11-15T04:22:08;9.20;99.90
59307;DHT22;47983;53.016;-2.260;2022-11-15T04:25:13;9.30;99.90
59307;DHT22;47983;53.016;-2.260;2022-11-15T04:28:02;9.30;99.90
59307;DHT22;47983;53.016;-2.260;2022-11-15T04:30:48;9.20;99.90
59307;DHT22;47983;53.016;-2.260;2022-11-15T04:33:35;9.20;99.90
59307;DHT22;47983;53.016;-2.260;2022-11-15T04:36:21;9.20;99.90
59307;DHT22;47983;53.016;-2.260;2022-11-15T04:39:25;9.20;99.90
59307;DHT22;47983;53.016;-2.260;2022-11-15T04:42:11;9.20;99.90
59307;DHT22;47983;53.016;-2.260;2022-11-15T04:44:57;9.10;99.90
59307;DHT22;47983;53.016;-2.260;2022-11-15T04:47:44;9.20;99.90
59307;DHT22;47983;53.016;-2.260;2022-11-15T04:50:30;9.20;99.90
59307;DHT22;47983;53.016;-2.260;2022-11-15T04:53:17;9.20;99.90
59307;DHT22;47983;53.016;-2.260;2022-11-15T04:56:03;9.10;99.90
59307;DHT22;47983;53.016;-2.260;2022-11-15T04:58:49;9.10;99.90
59307;DHT22;47983;53.016;-2.260;2022-11-15T05:01:35;9.10;99.90
59307;DHT22;47983;53.016;-2.260;2022-11-15T05:04:29;9.10;99.90
59307;DHT22;47983;53.016;-2.260;2022-11-15T05:07:15;9.20;99.90
59307;DHT22;47983;53.016;-2.260;2022-11-15T05:10:02;9.20;99.90
59307;DHT22;47983;53.016;-2.260;2022-11-15T05:12:48;9.20;99.90
59307;DHT22;47983;53.016;-2.260;2022-11-15T05:15:34;9.20;99.90
59307;DHT22;47983;53.016;-2.260;2022-11-15T05:18:20;9.20;99.90
59307;DHT22;47983;53.016;-2.260;2022-11-15T05:21:13;9.20;99.90
59307;DHT22;47983;53.016;-2.260;2022-11-15T05:24:01;9.30;99.90
59307;DHT22;47983;53.016;-2.260;2022-11-15T05:26:47;9.30;99.90
59307;DHT22;47983;53.016;-2.260;2022-11-15T05:29:33;9.30;99.90
59307;DHT22;47983;53.016;-2.260;2022-11-15T05:32:18;9.30;99.90
59307;DHT22;47983;53.016;-2.260;2022-11-15T05:35:05;9.40;99.90
59307;DHT22;47983;53.016;-2.260;2022-11-15T05:37:53;9.40;99.90
59307;DHT22;47983;53.016;-2.260;2022-11-15T05:40:39;9.50;99.90
59307;DHT22;47983;53.016;-2.260;2022-11-15T05:43:26;9.50;99.90
59307;DHT22;47983;53.016;-2.260;2022-11-15T05:46:13;9.50;99.90
59307;DHT22;47983;53.016;-2.260;2022-11-15T05:49:00;9.50;99.90
59307;DHT22;47983;53.016;-2.260;2022-11-15T05:51:47;9.60;99.90
59307;DHT22;47983;53.016;-2.260;2022-11-15T05:54:35;9.60;99.90
59307;DHT22;47983;53.016;-2.260;2022-11-15T05:57:22;9.60;99.90
59307;DHT22;47983;53.016;-2.260;2022-11-15T06:00:09;9.70;99.90
59307;DHT22;47983;53.016;-2.260;2022-11-15T06:02:56;9.70;99.90
59307;DHT22;47983;53.016;-2.260;2022-11-15T06:05:41;9.80;99.90
59307;DHT22;47983;53.016;-2.260;2022-11-15T06:08:28;9.70;99.90
59307;DHT22;47983;53.016;-2.260;2022-11-15T06:11:14;9.80;99.90
59307;DHT22;47983;53.016;-2.260;2022-11-15T06:14:00;9.80;99.90
59307;DHT22;47983;53.016;-2.260;2022-11-15T06:16:47;9.80;99.90
59307;DHT22;47983;53.016;-2.260;2022-11-15T06:19:33;9.80;99.90
59307;DHT22;47983;53.016;-2.260;2022-11-15T06:22:18;9.90;99.90
59307;DHT22;47983;53.016;-2.260;2022-11-15T06:25:05;9.90;99.90
59307;DHT22;47983;53.016;-2.260;2022-11-15T06:27:55;9.80;99.90
59307;DHT22;47983;53.016;-2.260;2022-11-15T06:30:41;9.90;99.90
59307;DHT22;47983;53.016;-2.260;2022-11-15T06:33:27;9.90;99.90
59307;DHT22;47983;53.016;-2.260;2022-11-15T06:36:13;9.90;99.90
59307;DHT22;47983;53.016;-2.260;2022-11-15T06:39:04;9.90;99.90
59307;DHT22;47983;53.016;-2.260;2022-11-15T06:41:50;9.90;99.90
59307;DHT22;47983;53.016;-2.260;2022-11-15T06:44:36;9.90;99.90
59307;DHT22;47983;53.016;-2.260;2022-11-15T06:47:22;9.90;99.90
59307;DHT22;47983;53.016;-2.260;2022-11-15T06:50:09;9.90;99.90
59307;DHT22;47983;53.016;-2.260;2022-11-15T06:52:55;10.00;99.90
59307;DHT22;47983;53.016;-2.260;2022-11-15T06:55:45;10.00;99.90
59307;DHT22;47983;53.016;-2.260;2022-11-15T06:58:38;10.00;99.90
59307;DHT22;47983;53.016;-2.260;2022-11-15T07:01:24;10.00;99.90
59307;DHT22;47983;53.016;-2.260;2022-11-15T07:04:10;10.00;99.90
59307;DHT22;47983;53.016;-2.260;2022-11-15T07:06:57;10.00;99.90
59307;DHT22;47983;53.016;-2.260;2022-11-15T07:09:43;10.00;99.90
59307;DHT22;47983;53.016;-2.260;2022-11-15T07:12:29;10.00;99.90
59307;DHT22;47983;53.016;-2.260;2022-11-15T07:15:17;10.00;99.90
59307;DHT22;47983;53.016;-2.260;2022-11-15T07:18:04;10.00;99.90
59307;DHT22;47983;53.016;-2.260;2022-11-15T07:20:50;10.00;99.90
59307;DHT22;47983;53.016;-2.260;2022-11-15T07:23:38;10.00;99.90
59307;DHT22;47983;53.016;-2.260;2022-11-15T07:26:24;10.00;99.90
59307;DHT22;47983;53.016;-2.260;2022-11-15T07:29:11;10.10;99.90
59307;DHT22;47983;53.016;-2.260;2022-11-15T07:31:57;10.00;99.90
59307;DHT22;47983;53.016;-2.260;2022-11-15T07:34:43;10.00;99.90
59307;DHT22;47983;53.016;-2.260;2022-11-15T07:37:32;10.10;99.90
59307;DHT22;47983;53.016;-2.260;2022-11-15T07:40:17;10.30;99.90
59307;DHT22;47983;53.016;-2.260;2022-11-15T07:43:05;10.10;99.90
59307;DHT22;47983;53.016;-2.260;2022-11-15T07:45:52;10.10;99.90
59307;DHT22;47983;53.016;-2.260;2022-11-15T07:48:44;10.10;99.90
59307;DHT22;47983;53.016;-2.260;2022-11-15T07:51:30;10.10;99.90
59307;DHT22;47983;53.016;-2.260;2022-11-15T07:54:16;10.10;99.90
59307;DHT22;47983;53.016;-2.260;2022-11-15T07:57:02;10.10;99.90
59307;DHT22;47983;53.016;-2.260;2022-11-15T07:59:53;10.20;99.90
59307;DHT22;47983;53.016;-2.260;2022-11-15T08:02:39;10.20;99.90
59307;DHT22;47983;53.016;-2.260;2022-11-15T08:05:26;10.20;99.90
59307;DHT22;47983;53.016;-2.260;2022-11-15T08:08:12;10.20;99.90
59307;DHT22;47983;53.016;-2.260;2022-11-15T08:10:59;10.20;99.90
59307;DHT22;47983;53.016;-2.260;2022-11-15T08:13:46;10.30;99.90
59307;DHT22;47983;53.016;-2.260;2022-11-15T08:16:32;10.30;99.90
59307;DHT22;47983;53.016;-2.260;2022-11-15T08:19:18;10.30;99.90
59307;DHT22;47983;53.016;-2.260;2022-11-15T08:22:04;10.30;99.90
59307;DHT22;47983;53.016;-2.260;2022-11-15T08:24:50;10.30;99.90
59307;DHT22;47983;53.016;-2.260;2022-11-15T08:27:35;10.40;99.90
59307;DHT22;47983;53.016;-2.260;2022-11-15T08:30:23;10.40;99.90
59307;DHT22;47983;53.016;-2.260;2022-11-15T08:33:12;10.40;99.90
59307;DHT22;47983;53.016;-2.260;2022-11-15T08:36:01;10.40;99.90
59307;DHT22;47983;53.016;-2.260;2022-11-15T08:38:47;10.40;99.90
59307;DHT22;47983;53.016;-2.260;2022-11-15T08:41:36;10.40;99.90
59307;DHT22;47983;53.016;-2.260;2022-11-15T08:44:23;10.40;99.90
59307;DHT22;47983;53.016;-2.260;2022-11-15T08:47:13;10.50;99.90
59307;DHT22;47983;53.016;-2.260;2022-11-15T08:50:00;10.50;99.90
59307;DHT22;47983;53.016;-2.260;2022-11-15T08:52:46;10.50;99.90
59307;DHT22;47983;53.016;-2.260;2022-11-15T08:55:36;10.50;99.90
59307;DHT22;47983;53.016;-2.260;2022-11-15T08:58:23;10.60;99.90
59307;DHT22;47983;53.016;-2.260;2022-11-15T09:01:19;10.60;99.90
59307;DHT22;47983;53.016;-2.260;2022-11-15T09:04:06;10.60;99.90
59307;DHT22;47983;53.016;-2.260;2022-11-15T09:06:52;10.60;99.90
59307;DHT22;47983;53.016;-2.260;2022-11-15T09:09:39;10.60;99.90
59307;DHT22;47983;53.016;-2.260;2022-11-15T09:12:26;10.60;99.90
59307;DHT22;47983;53.016;-2.260;2022-11-15T09:15:12;10.70;99.90
59307;DHT22;47983;53.016;-2.260;2022-11-15T09:17:59;10.60;99.90
59307;DHT22;47983;53.016;-2.260;2022-11-15T09:20:45;10.70;99.90
59307;DHT22;47983;53.016;-2.260;2022-11-15T09:23:30;10.70;99.90
59307;DHT22;47983;53.016;-2.260;2022-11-15T09:26:16;10.70;99.90
59307;DHT22;47983;53.016;-2.260;2022-11-15T09:29:03;10.70;99.90
59307;DHT22;47983;53.016;-2.260;2022-11-15T09:31:52;10.70;99.90
59307;DHT22;47983;53.016;-2.260;2022-11-15T09:34:39;10.70;99.90
59307;DHT22;47983;53.016;-2.260;2022-11-15T09:37:25;10.70;99.90
59307;DHT22;47983;53.016;-2.260;2022-11-15T09:40:13;10.70;99.90
59307;DHT22;47983;53.016;-2.260;2022-11-15T09:46:37;10.80;99.90
59307;DHT22;47983;53.016;-2.260;2022-11-15T09:49:24;10.80;99.90
59307;DHT22;47983;53.016;-2.260;2022-11-15T09:52:04;10.80;99.90
59307;DHT22;47983;53.016;-2.260;2022-11-15T09:54:40;10.80;99.90
59307;DHT22;47983;53.016;-2.260;2022-11-15T09:57:50;10.80;99.90
59307;DHT22;47983;53.016;-2.260;2022-11-15T10:00:37;10.80;99.90
59307;DHT22;47983;53.016;-2.260;2022-11-15T10:03:26;10.80;99.90
59307;DHT22;47983;53.016;-2.260;2022-11-15T10:05:59;10.90;99.90
59307;DHT22;47983;53.016;-2.260;2022-11-15T10:11:01;10.90;99.90
59307;DHT22;47983;53.016;-2.260;2022-11-15T10:13:52;10.90;99.90
59307;DHT22;47983;53.016;-2.260;2022-11-15T10:19:32;10.90;99.90
59307;DHT22;47983;53.016;-2.260;2022-11-15T10:25:12;10.90;99.90
59307;DHT22;47983;53.016;-2.260;2022-11-15T10:27:43;11.00;99.90
59307;DHT22;47983;53.016;-2.260;2022-11-15T10:30:16;11.00;99.90
59307;DHT22;47983;53.016;-2.260;2022-11-15T10:32:46;11.00;99.90
59307;DHT22;47983;53.016;-2.260;2022-11-15T10:35:23;11.00;99.90
59307;DHT22;47983;53.016;-2.260;2022-11-15T10:37:51;11.00;99.90
59307;DHT22;47983;53.016;-2.260;2022-11-15T10:40:23;11.00;99.90
59307;DHT22;47983;53.016;-2.260;2022-11-15T10:45:36;11.10;99.90
59307;DHT22;47983;53.016;-2.260;2022-11-15T10:50:45;11.10;99.90
59307;DHT22;47983;53.016;-2.260;2022-11-15T10:55:57;11.20;99.90
59307;DHT22;47983;53.016;-2.260;2022-11-15T10:58:31;11.10;99.90
59307;DHT22;47983;53.016;-2.260;2022-11-15T11:01:19;11.20;99.90
59307;DHT22;47983;53.016;-2.260;2022-11-15T11:04:10;11.20;99.90
59307;DHT22;47983;53.016;-2.260;2022-11-15T11:06:59;11.20;99.90
59307;DHT22;47983;53.016;-2.260;2022-11-15T11:09:42;11.20;99.90
59307;DHT22;47983;53.016;-2.260;2022-11-15T11:12:11;11.20;99.90
59307;DHT22;47983;53.016;-2.260;2022-11-15T11:14:39;11.20;99.90
59307;DHT22;47983;53.016;-2.260;2022-11-15T11:17:25;11.30;99.90
59307;DHT22;47983;53.016;-2.260;2022-11-15T11:20:13;11.30;99.90
59307;DHT22;47983;53.016;-2.260;2022-11-15T11:22:59;11.30;99.90
59307;DHT22;47983;53.016;-2.260;2022-11-15T11:28:37;11.40;99.90
59307;DHT22;47983;53.016;-2.260;2022-11-15T11:40:19;11.50;99.90
59307;DHT22;47983;53.016;-2.260;2022-11-15T11:50:47;11.40;99.90
59307;DHT22;47983;53.016;-2.260;2022-11-15T11:53:35;11.40;99.90
59307;DHT22;47983;53.016;-2.260;2022-11-15T11:56:25;11.40;99.90
59307;DHT22;47983;53.016;-2.260;2022-11-15T11:58:57;11.30;99.90
59307;DHT22;47983;53.016;-2.260;2022-11-15T12:01:41;11.30;99.90
59307;DHT22;47983;53.016;-2.260;2022-11-15T12:04:19;11.30;99.90
59307;DHT22;47983;53.016;-2.260;2022-11-15T12:07:19;11.20;99.90
59307;DHT22;47983;53.016;-2.260;2022-11-15T12:10:01;11.20;99.90
59307;DHT22;47983;53.016;-2.260;2022-11-15T12:12:38;11.20;99.90
59307;DHT22;47983;53.016;-2.260;2022-11-15T12:17:38;11.30;99.90
59307;DHT22;47983;53.016;-2.260;2022-11-15T12:20:35;11.30;99.90
59307;DHT22;47983;53.016;-2.260;2022-11-15T12:23:41;11.30;99.90
59307;DHT22;47983;53.016;-2.260;2022-11-15T12:26:24;11.30;99.90
59307;DHT22;47983;53.016;-2.260;2022-11-15T12:29:03;11.20;99.90
59307;DHT22;47983;53.016;-2.260;2022-11-15T12:31:39;11.20;99.90
59307;DHT22;47983;53.016;-2.260;2022-11-15T12:36:49;11.10;99.90
59307;DHT22;47983;53.016;-2.260;2022-11-15T12:39:17;11.10;99.90
59307;DHT22;47983;53.016;-2.260;2022-11-15T12:52:05;11.10;99.90
59307;DHT22;47983;53.016;-2.260;2022-11-15T12:59:59;11.10;99.90
59307;DHT22;47983;53.016;-2.260;2022-11-15T13:12:49;11.30;99.90
59307;DHT22;47983;53.016;-2.260;2022-11-15T13:17:54;11.30;99.90
59307;DHT22;47983;53.016;-2.260;2022-11-15T13:20:26;11.30;99.90
59307;DHT22;47983;53.016;-2.260;2022-11-15T13:26:08;11.10;99.90
59307;DHT22;47983;53.016;-2.260;2022-11-15T13:28:48;11.20;99.90
59307;DHT22;47983;53.016;-2.260;2022-11-15T13:33:53;11.10;99.90
59307;DHT22;47983;53.016;-2.260;2022-11-15T13:36:26;11.00;99.90
59307;DHT22;47983;53.016;-2.260;2022-11-15T13:39:05;11.00;99.90
59307;DHT22;47983;53.016;-2.260;2022-11-15T13:41:45;10.90;99.90
59307;DHT22;47983;53.016;-2.260;2022-11-15T13:44:23;10.80;99.90
59307;DHT22;47983;53.016;-2.260;2022-11-15T13:47:05;10.70;99.90
59307;DHT22;47983;53.016;-2.260;2022-11-15T13:49:34;10.70;99.90
59307;DHT22;47983;53.016;-2.260;2022-11-15T13:52:05;10.60;99.90
59307;DHT22;47983;53.016;-2.260;2022-11-15T13:54:38;10.60;99.90
59307;DHT22;47983;53.016;-2.260;2022-11-15T13:57:56;10.50;99.90
59307;DHT22;47983;53.016;-2.260;2022-11-15T14:00:02;10.50;99.90
59307;DHT22;47983;53.016;-2.260;2022-11-15T14:02:38;10.40;99.90
59307;DHT22;47983;53.016;-2.260;2022-11-15T14:05:16;10.30;99.90
59307;DHT22;47983;53.016;-2.260;2022-11-15T14:10:37;10.20;99.90
59307;DHT22;47983;53.016;-2.260;2022-11-15T14:13:11;10.20;99.90
59307;DHT22;47983;53.016;-2.260;2022-11-15T14:15:53;10.20;99.90
59307;DHT22;47983;53.016;-2.260;2022-11-15T14:18:43;10.20;99.90
59307;DHT22;47983;53.016;-2.260;2022-11-15T14:21:11;10.20;99.90
59307;DHT22;47983;53.016;-2.260;2022-11-15T14:23:39;10.10;99.90
59307;DHT22;47983;53.016;-2.260;2022-11-15T14:26:28;10.10;99.90
59307;DHT22;47983;53.016;-2.260;2022-11-15T14:28:56;10.10;99.90
59307;DHT22;47983;53.016;-2.260;2022-11-15T14:31:23;10.10;99.90
59307;DHT22;47983;53.016;-2.260;2022-11-15T14:33:51;10.20;99.90
59307;DHT22;47983;53.016;-2.260;2022-11-15T14:36:21;10.20;99.90
59307;DHT22;47983;53.016;-2.260;2022-11-15T14:38:50;10.10;99.90
59307;DHT22;47983;53.016;-2.260;2022-11-15T14:41:21;10.20;99.90
59307;DHT22;47983;53.016;-2.260;2022-11-15T14:43:50;10.10;99.90
59307;DHT22;47983;53.016;-2.260;2022-11-15T14:46:21;10.20;99.90
59307;DHT22;47983;53.016;-2.260;2022-11-15T14:48:49;10.10;99.90
59307;DHT22;47983;53.016;-2.260;2022-11-15T14:51:18;10.20;99.90
59307;DHT22;47983;53.016;-2.260;2022-11-15T14:53:46;10.20;99.90
59307;DHT22;47983;53.016;-2.260;2022-11-15T14:56:15;10.10;99.90
59307;DHT22;47983;53.016;-2.260;2022-11-15T14:58:43;10.10;99.90
59307;DHT22;47983;53.016;-2.260;2022-11-15T15:01:19;10.20;99.90
59307;DHT22;47983;53.016;-2.260;2022-11-15T15:03:48;10.10;99.90
59307;DHT22;47983;53.016;-2.260;2022-11-15T15:06:15;10.20;99.90
59307;DHT22;47983;53.016;-2.260;2022-11-15T15:08:45;10.20;99.90
59307;DHT22;47983;53.016;-2.260;2022-11-15T15:11:16;10.30;99.90
59307;DHT22;47983;53.016;-2.260;2022-11-15T15:13:46;10.30;99.90
59307;DHT22;47983;53.016;-2.260;2022-11-15T15:16:13;10.30;99.90
59307;DHT22;47983;53.016;-2.260;2022-11-15T15:18:41;10.30;99.90
59307;DHT22;47983;53.016;-2.260;2022-11-15T15:21:24;10.30;99.90
59307;DHT22;47983;53.016;-2.260;2022-11-15T15:23:56;10.20;99.90
59307;DHT22;47983;53.016;-2.260;2022-11-15T15:26:24;10.10;99.90
59307;DHT22;47983;53.016;-2.260;2022-11-15T15:28:51;10.00;99.90
59307;DHT22;47983;53.016;-2.260;2022-11-15T15:31:19;9.70;99.90
59307;DHT22;47983;53.016;-2.260;2022-11-15T15:33:47;9.70;99.90
59307;DHT22;47983;53.016;-2.260;2022-11-15T15:36:18;9.50;99.90
59307;DHT22;47983;53.016;-2.260;2022-11-15T15:38:45;9.40;99.90
59307;DHT22;47983;53.016;-2.260;2022-11-15T15:41:15;9.30;99.90
59307;DHT22;47983;53.016;-2.260;2022-11-15T15:43:43;9.30;99.90
59307;DHT22;47983;53.016;-2.260;2022-11-15T15:46:15;9.20;99.90
59307;DHT22;47983;53.016;-2.260;2022-11-15T15:48:43;9.20;99.90
59307;DHT22;47983;53.016;-2.260;2022-11-15T15:51:11;9.10;99.90
59307;DHT22;47983;53.016;-2.260;2022-11-15T15:53:47;9.10;99.90
59307;DHT22;47983;53.016;-2.260;2022-11-15T15:56:15;9.10;99.90
59307;DHT22;47983;53.016;-2.260;2022-11-15T15:58:43;9.10;99.90
59307;DHT22;47983;53.016;-2.260;2022-11-15T16:01:10;9.10;99.90
59307;DHT22;47983;53.016;-2.260;2022-11-15T16:03:38;9.10;99.90
59307;DHT22;47983;53.016;-2.260;2022-11-15T16:08:59;9.00;99.90
59307;DHT22;47983;53.016;-2.260;2022-11-15T16:11:44;9.00;99.90
59307;DHT22;47983;53.016;-2.260;2022-11-15T16:14:12;9.00;99.90
59307;DHT22;47983;53.016;-2.260;2022-11-15T16:16:39;9.00;99.90
59307;DHT22;47983;53.016;-2.260;2022-11-15T16:19:08;8.90;99.90
59307;DHT22;47983;53.016;-2.260;2022-11-15T16:21:37;8.90;99.90
59307;DHT22;47983;53.016;-2.260;2022-11-15T16:24:05;8.80;99.90
59307;DHT22;47983;53.016;-2.260;2022-11-15T16:26:34;8.70;99.90
59307;DHT22;47983;53.016;-2.260;2022-11-15T16:29:03;8.70;99.90
59307;DHT22;47983;53.016;-2.260;2022-11-15T16:31:30;8.60;99.90
59307;DHT22;47983;53.016;-2.260;2022-11-15T16:33:58;8.50;99.90
59307;DHT22;47983;53.016;-2.260;2022-11-15T16:36:26;8.50;99.90
59307;DHT22;47983;53.016;-2.260;2022-11-15T16:38:58;8.40;99.90
59307;DHT22;47983;53.016;-2.260;2022-11-15T16:41:26;8.40;99.90
59307;DHT22;47983;53.016;-2.260;2022-11-15T16:43:54;8.40;99.90
59307;DHT22;47983;53.016;-2.260;2022-11-15T16:46:26;8.40;99.90
59307;DHT22;47983;53.016;-2.260;2022-11-15T16:48:54;8.40;99.90
59307;DHT22;47983;53.016;-2.260;2022-11-15T16:51:22;8.40;99.90
59307;DHT22;47983;53.016;-2.260;2022-11-15T16:53:50;8.40;99.90
59307;DHT22;47983;53.016;-2.260;2022-11-15T16:56:19;8.40;99.90
59307;DHT22;47983;53.016;-2.260;2022-11-15T16:58:49;8.50;99.90
59307;DHT22;47983;53.016;-2.260;2022-11-15T17:01:22;8.50;99.90
59307;DHT22;47983;53.016;-2.260;2022-11-15T17:03:53;8.50;99.90
59307;DHT22;47983;53.016;-2.260;2022-11-15T17:06:21;8.50;99.90
59307;DHT22;47983;53.016;-2.260;2022-11-15T17:08:48;8.60;99.90
59307;DHT22;47983;53.016;-2.260;2022-11-15T17:11:21;8.60;99.90
59307;DHT22;47983;53.016;-2.260;2022-11-15T17:13:49;8.60;99.90
59307;DHT22;47983;53.016;-2.260;2022-11-15T17:16:17;8.60;99.90
59307;DHT22;47983;53.016;-2.260;2022-11-15T17:18:50;8.70;99.90
59307;DHT22;47983;53.016;-2.260;2022-11-15T17:21:19;8.70;99.90
59307;DHT22;47983;53.016;-2.260;2022-11-15T17:23:48;8.70;99.90
59307;DHT22;47983;53.016;-2.260;2022-11-15T17:26:15;8.80;99.90
59307;DHT22;47983;53.016;-2.260;2022-11-15T17:28:57;8.80;99.90
59307;DHT22;47983;53.016;-2.260;2022-11-15T17:31:27;8.80;99.90
59307;DHT22;47983;53.016;-2.260;2022-11-15T17:33:57;8.90;99.90
59307;DHT22;47983;53.016;-2.260;2022-11-15T17:36:24;8.80;99.90
59307;DHT22;47983;53.016;-2.260;2022-11-15T17:38:52;8.90;99.90
59307;DHT22;47983;53.016;-2.260;2022-11-15T17:41:27;8.90;99.90
59307;DHT22;47983;53.016;-2.260;2022-11-15T17:43:56;8.80;99.90
59307;DHT22;47983;53.016;-2.260;2022-11-15T17:46:28;8.80;99.90
59307;DHT22;47983;53.016;-2.260;2022-11-15T17:48:57;8.90;99.90
59307;DHT22;47983;53.016;-2.260;2022-11-15T17:51:25;8.80;99.90
59307;DHT22;47983;53.016;-2.260;2022-11-15T17:53:54;8.80;99.90
59307;DHT22;47983;53.016;-2.260;2022-11-15T17:56:24;8.70;99.90
59307;DHT22;47983;53.016;-2.260;2022-11-15T17:58:54;8.80;99.90
59307;DHT22;47983;53.016;-2.260;2022-11-15T18:01:30;8.80;99.90
59307;DHT22;47983;53.016;-2.260;2022-11-15T18:04:00;8.80;99.90
59307;DHT22;47983;53.016;-2.260;2022-11-15T18:06:29;8.80;99.90
59307;DHT22;47983;53.016;-2.260;2022-11-15T18:08:57;8.80;99.90
59307;DHT22;47983;53.016;-2.260;2022-11-15T18:11:30;8.80;99.90
59307;DHT22;47983;53.016;-2.260;2022-11-15T18:14:00;8.90;99.90
59307;DHT22;47983;53.016;-2.260;2022-11-15T18:16:32;8.90;99.90
59307;DHT22;47983;53.016;-2.260;2022-11-15T18:18:59;8.90;99.90
59307;DHT22;47983;53.016;-2.260;2022-11-15T18:21:29;8.90;99.90
59307;DHT22;47983;53.016;-2.260;2022-11-15T18:23:58;8.90;99.90
59307;DHT22;47983;53.016;-2.260;2022-11-15T18:26:28;8.90;99.90
59307;DHT22;47983;53.016;-2.260;2022-11-15T18:29:00;8.90;99.90
59307;DHT22;47983;53.016;-2.260;2022-11-15T18:31:29;8.80;99.90
59307;DHT22;47983;53.016;-2.260;2022-11-15T18:33:58;8.80;99.90
59307;DHT22;47983;53.016;-2.260;2022-11-15T18:36:28;8.80;99.90
59307;DHT22;47983;53.016;-2.260;2022-11-15T18:38:57;8.80;99.90
59307;DHT22;47983;53.016;-2.260;2022-11-15T18:41:25;8.80;99.90
59307;DHT22;47983;53.016;-2.260;2022-11-15T18:43:57;8.80;99.90
59307;DHT22;47983;53.016;-2.260;2022-11-15T18:46:27;8.70;99.90
59307;DHT22;47983;53.016;-2.260;2022-11-15T18:48:58;8.70;99.90